createdAt,value
2018-11-06T00:07:02.041Z,10.90
2018-11-06T00:17:06.551Z,10.80
2018-11-06T00:27:11.157Z,10.70
2018-11-06T00:37:15.708Z,10.70
2018-11-06T00:47:20.383Z,10.70
2018-11-06T00:57:25.158Z,10.60
2018-11-06T01:07:29.620Z,10.60
2018-11-06T01:17:34.291Z,10.50
2018-11-06T01:27:39.057Z,10.50
2018-11-06T01:37:44.449Z,10.40
2018-11-06T01:47:48.901Z,10.20
2018-11-06T01:57:53.720Z,10.10
2018-11-06T02:07:58.302Z,10.10
2018-11-06T02:18:02.898Z,10.10
2018-11-06T02:28:07.215Z,10.10
2018-11-06T02:38:11.908Z,10.00
2018-11-06T02:48:16.578Z,10.10
2018-11-06T02:58:20.991Z,10.00
2018-11-06T03:08:25.518Z,10.00
2018-11-06T03:18:30.110Z,9.90
2018-11-06T03:28:34.639Z,9.90
2018-11-06T03:38:39.230Z,9.80
2018-11-06T03:48:43.819Z,9.70
2018-11-06T03:58:48.172Z,9.80
2018-11-06T04:08:52.732Z,9.70
2018-11-06T04:18:57.353Z,9.60
2018-11-06T04:29:01.895Z,9.60
2018-11-06T04:39:08.650Z,9.50
2018-11-06T04:49:13.196Z,9.40
2018-11-06T04:59:17.754Z,9.50
2018-11-06T05:09:22.323Z,9.50
2018-11-06T05:19:26.906Z,9.40
2018-11-06T05:29:31.584Z,9.40
2018-11-06T05:39:41.397Z,9.40
2018-11-06T05:49:45.966Z,9.40
2018-11-06T05:59:50.446Z,9.30
2018-11-06T06:09:54.719Z,9.40
2018-11-06T06:19:59.263Z,9.50
2018-11-06T06:30:04.198Z,9.50
2018-11-06T06:40:12.001Z,9.50
2018-11-06T06:50:18.606Z,9.60
2018-11-06T07:00:23.589Z,9.60
2018-11-06T07:10:28.202Z,9.70
2018-11-06T07:20:35.810Z,9.80
2018-11-06T07:30:40.735Z,9.80
2018-11-06T07:40:45.385Z,10.00
2018-11-06T07:50:49.956Z,10.20
2018-11-06T08:00:54.431Z,10.20
2018-11-06T08:11:02.812Z,10.50
2018-11-06T08:21:07.422Z,10.50
2018-11-06T08:31:12.609Z,10.70
2018-11-06T08:41:17.061Z,10.90
2018-11-06T08:51:21.810Z,11.20
2018-11-06T09:01:26.370Z,11.40
2018-11-06T09:11:31.250Z,11.60
2018-11-06T09:21:35.860Z,11.70
2018-11-06T09:31:40.478Z,11.90
2018-11-06T09:41:45.326Z,12.10
2018-11-06T09:51:50.188Z,12.30
2018-11-06T10:01:54.837Z,12.60
2018-11-06T10:11:59.772Z,13.00
2018-11-06T10:22:04.485Z,13.40
2018-11-06T10:32:09.250Z,13.70
2018-11-06T10:42:18.042Z,14.00
2018-11-06T10:52:22.605Z,14.60
2018-11-06T11:02:32.267Z,20.60
2018-11-06T11:12:36.847Z,22.60
2018-11-06T11:22:41.488Z,22.40
2018-11-06T11:32:47.116Z,24.70
2018-11-06T11:42:51.469Z,24.00
2018-11-06T11:52:55.976Z,23.70
2018-11-06T12:03:00.464Z,23.70
2018-11-06T12:13:05.606Z,23.70
2018-11-06T12:23:10.325Z,22.60
2018-11-06T12:33:15.011Z,21.20
2018-11-06T12:43:19.658Z,18.80
2018-11-06T12:53:24.282Z,17.90
2018-11-06T13:03:29.087Z,17.50
2018-11-06T13:13:33.675Z,17.20
2018-11-06T13:23:38.085Z,16.90
2018-11-06T13:33:42.858Z,16.80
2018-11-06T13:43:47.712Z,16.70
2018-11-06T13:53:52.097Z,16.70
2018-11-06T14:03:56.923Z,16.50
2018-11-06T14:14:01.678Z,16.50
2018-11-06T14:24:06.138Z,16.20
2018-11-06T14:34:10.907Z,16.10
2018-11-06T14:44:15.497Z,15.90
2018-11-06T14:54:20.051Z,15.70
2018-11-06T15:04:24.816Z,15.50
2018-11-06T15:14:29.595Z,15.30
2018-11-06T15:24:34.247Z,15.20
2018-11-06T15:34:38.933Z,15.00
2018-11-06T15:44:43.677Z,14.90
2018-11-06T15:54:48.208Z,14.90
2018-11-06T16:04:52.652Z,14.70
2018-11-06T16:14:57.270Z,14.60
2018-11-06T16:25:01.938Z,14.50
2018-11-06T16:35:07.823Z,14.40
2018-11-06T16:45:14.666Z,14.20
2018-11-06T16:55:19.902Z,14.20
2018-11-06T17:05:24.494Z,14.10
2018-11-06T17:15:29.246Z,13.90
2018-11-06T17:25:34.030Z,13.80
2018-11-06T17:35:38.770Z,13.60
2018-11-06T17:45:43.378Z,13.50
2018-11-06T17:55:48.136Z,13.40
2018-11-06T18:05:52.807Z,13.40
2018-11-06T18:15:57.334Z,13.30
2018-11-06T18:26:02.155Z,13.20
2018-11-06T18:36:07.910Z,13.20
2018-11-06T18:46:12.957Z,13.10
2018-11-06T18:56:17.633Z,13.10
2018-11-06T19:06:22.378Z,13.00
2018-11-06T19:16:27.082Z,12.90
2018-11-06T19:26:31.967Z,12.80
2018-11-06T19:36:36.728Z,12.70
2018-11-06T19:46:44.873Z,12.70
2018-11-06T19:56:49.572Z,12.60
2018-11-06T20:06:54.443Z,12.50
2018-11-06T20:16:59.007Z,12.40
2018-11-06T20:27:03.571Z,12.20
2018-11-06T20:37:08.139Z,12.10
2018-11-06T20:47:12.919Z,12.00
2018-11-06T20:57:17.568Z,11.90
2018-11-06T21:07:22.166Z,11.90
2018-11-06T21:17:26.987Z,11.70
2018-11-06T21:27:31.714Z,11.60
2018-11-06T21:37:40.037Z,11.50
2018-11-06T21:47:45.414Z,11.50
2018-11-06T21:57:50.678Z,11.40
2018-11-06T22:07:55.296Z,11.30
2018-11-06T22:18:00.120Z,11.30
2018-11-06T22:28:05.150Z,11.30
2018-11-06T22:38:13.757Z,11.10
2018-11-06T22:48:18.711Z,11.00
2018-11-06T22:58:23.439Z,10.90
2018-11-06T23:08:29.087Z,10.80
2018-11-06T23:18:33.802Z,10.80
2018-11-06T23:28:38.387Z,10.60
2018-11-06T23:38:43.948Z,10.60
2018-11-06T23:48:48.779Z,10.50
2018-11-06T23:58:53.557Z,10.40
